MYST2: Pat Mayse Lake

Data processed at Mon Jan 21 2019 23:32


All information presented herein is the property of the government of the United States of America and may be revised or deleted at any time without prior notice.
Dissemination of this information without the expressed written consent of the Public Affairs Office, Tulsa District U.S. Army Corps of Engineers is strictly prohibited.
These data are gathered electronically and, as presented, have not undergone any form of quality control. These data are not guaranteed to be valid or correct.
Go to home page.
Go to station list.
Go to home page.

Downstream station:


Previous Day
Next Day
Current Day
    
SHEF ID:       MYST2     Pat Mayse Lake
STATION TYPE:  RESERVOIR
Normal Pool:  Bottom =   415.00, Top =   451.00

               PRECIP PRECIP(A) ELEVATION   STORAGE    INFLOW   RELEASE  AIR-TEMP  WIND-DIRWIND-SPEED REL-HUMID SOLAR-RAD   VOLTAGE  BAT-LOAD
                   in        in        ft     ac-ft       cfs       cfs         F       deg       mph         %      W/m2      volt      volt
              Ccp-Rev   Ccp-Rev   Ccp-Rev   Ccp-Rev  Regi-Rev  Regi-Rev   Ccp-Rev   Ccp-Rev   Ccp-Rev   Ccp-Rev   Ccp-Rev   Ccp-Rev   Ccp-Rev
(US/Central)
01/21 00:00      0.00      ----    452.67    127576         0       241     35.20     63.70      6.60     33.54      0.00     11.79     11.53
01/21 01:00      0.00      ----    452.66    127517         0       241     34.66     71.10      8.00     36.38      0.00     11.78     11.53
01/21 02:00      0.00      ----    452.66    127517         0       238     33.62     64.10      8.00     36.74      0.00     11.76     11.46
01/21 03:00      0.00      ----    452.66    127517         0       238     32.61     65.40      8.10     37.12      0.00     11.75     11.46
01/21 04:00      0.00      ----    452.66    127517         0       238     31.89     76.50      6.00     43.21      0.00     11.74     11.46
01/21 05:00      0.00      ----    452.65    127457         0       237     31.73     73.80      6.20     43.50      0.00     11.70     11.46
01/21 06:00      0.00      ----    452.65    127457         0       236     31.42     78.90      6.20     48.68      0.00     11.68     11.46
01/21 07:00      0.00      ----    452.65    127457         0       236     32.00     87.70      7.30     50.13      0.00     11.70     11.37
01/21 08:00      0.00      ----    452.64    127398         0       235     33.12    100.00      8.70     53.61      7.60     11.75     11.37
01/21 09:00      0.00      ----    452.63    127338         0       232     35.24    108.80     11.10     45.63    159.40     12.13     11.46
01/21 10:00      0.00      ----    452.63    127338         2       231     38.70    114.00     14.40     40.88    268.40     12.33     11.77
01/21 11:00      0.00      ----    452.64    127398         2       232     40.28    116.20     15.00     35.78    344.10     12.57     12.01
01/21 12:00      0.00      ----    452.63    127338         2       232     43.75    121.10     16.70     33.44    519.90     12.81     12.17
01/21 13:00      0.00      ----    452.63    127338         2       231     46.76    122.90     17.60     25.68    588.70     13.01     12.33
01/21 14:00      0.00      ----    452.61    127219         9       229     48.58    134.00     19.30     26.95    523.70     12.77     12.57
01/21 15:00      0.00      ----    452.62    127279        13       228     49.17    122.40     19.00     26.13    397.30     12.68     12.41
01/21 16:00      0.00      ----    452.62    127279        20       229     49.42    114.00     18.60     22.37    329.50     12.53     12.41
01/21 17:00      0.00      ----    452.61    127219        20       228     50.29    119.70     16.40     21.31    180.80     12.19     12.17
01/21 18:00      0.00      ----    452.61    127219        20       226     49.77    116.80     16.30     21.60      9.20     12.03     11.86
01/21 19:00      0.00      ----    452.60    127160        13       225     48.16    108.90     11.80     24.69      0.00     11.99     11.77
01/21 20:00      0.00      ----    452.59    127100         7       223     46.80    104.80     10.80     27.02      0.00     11.97     11.70
01/21 21:00      0.00      ----    452.58    127041        44       220     46.18    100.20     10.40     33.14      0.00     11.95     11.70
01/21 22:00      0.00      ----    452.59    127100        44       220     46.35    107.00     11.70     37.99      0.00     11.93     11.70
01/21 23:00      0.00      ----    452.59    127100       133       222     47.17    112.10     12.00     45.51      0.00     11.92     11.70